Time;durP1;ratioP1;P1;durP2;ratioP2;P2;SDS_P1;SDS_P2;PMS_P1;PMS_P2;Temp;Humidity;BMP_temperature;BMP_pressure;BME280_temperature;BME280_humidity;BME280_pressure;Samples;Min_cycle;Max_cycle;Signal;HPM_P1;HPM_P2
2023/02/28 00:00:14;;;;;;;7.43;1.98;;;6.70;53.50;;;;;;5004666;28;20485;-79
2023/02/28 00:02:41;;;;;;;4.63;1.77;;;6.70;53.50;;;;;;5005867;28;20040;-79
2023/02/28 00:05:09;;;;;;;2.65;1.90;;;6.70;53.60;;;;;;5003647;28;20052;-79
2023/02/28 00:07:35;;;;;;;3.38;1.52;;;6.60;53.50;;;;;;5004338;28;20525;-77
2023/02/28 00:10:02;;;;;;;2.63;1.88;;;6.60;53.50;;;;;;5008950;28;20385;-75
2023/02/28 00:12:28;;;;;;;5.07;2.25;;;6.60;53.60;;;;;;5010143;28;20034;-75
2023/02/28 00:14:54;;;;;;;5.97;2.35;;;6.50;53.50;;;;;;5009582;28;20057;-76
2023/02/28 00:17:23;;;;;;;2.67;1.70;;;6.50;53.50;;;;;;5004646;28;20038;-76
2023/02/28 00:19:50;;;;;;;4.22;1.95;;;6.50;53.60;;;;;;5005405;28;20037;-75
2023/02/28 00:22:18;;;;;;;6.43;2.33;;;6.50;53.60;;;;;;5010818;28;20036;-75
2023/02/28 00:24:44;;;;;;;4.32;2.53;;;6.40;53.50;;;;;;5022505;28;20125;-75
2023/02/28 00:27:10;;;;;;;3.97;1.98;;;6.40;53.60;;;;;;5022440;28;20049;-75
2023/02/28 00:29:37;;;;;;;4.60;2.60;;;6.40;53.60;;;;;;5006652;28;20044;-75
2023/02/28 00:32:04;;;;;;;2.97;2.20;;;6.40;53.70;;;;;;5022490;28;20602;-77
2023/02/28 00:34:30;;;;;;;8.43;2.25;;;6.30;53.50;;;;;;5013498;28;20029;-77
2023/02/28 00:36:56;;;;;;;3.13;2.03;;;6.30;53.60;;;;;;5023626;28;20029;-78
2023/02/28 00:39:22;;;;;;;6.07;2.17;;;6.30;53.70;;;;;;5009627;28;20153;-78
2023/02/28 00:41:48;;;;;;;6.25;2.15;;;6.30;53.70;;;;;;5023212;28;20041;-77
2023/02/28 00:44:14;;;;;;;5.57;2.22;;;6.30;53.80;;;;;;5020192;28;20025;-75
2023/02/28 00:46:40;;;;;;;5.05;3.15;;;6.20;53.60;;;;;;5021097;28;20071;-77
2023/02/28 00:49:06;;;;;;;5.82;3.15;;;6.20;53.70;;;;;;5005092;28;20029;-77
2023/02/28 00:51:31;;;;;;;6.55;2.28;;;6.20;53.70;;;;;;5009377;28;20117;-78
2023/02/28 00:53:57;;;;;;;4.88;2.05;;;6.20;53.80;;;;;;5002430;28;20038;-77
2023/02/28 00:56:23;;;;;;;5.93;2.35;;;6.20;53.80;;;;;;5002387;28;20040;-77
2023/02/28 00:58:49;;;;;;;6.53;2.30;;;6.20;53.80;;;;;;5007245;28;20362;-77
2023/02/28 01:01:15;;;;;;;4.03;2.28;;;6.20;53.80;;;;;;5006410;28;20322;-77
2023/02/28 01:03:42;;;;;;;3.50;2.22;;;6.20;53.90;;;;;;5003009;28;20065;-76
2023/02/28 01:06:08;;;;;;;4.65;2.08;;;6.10;53.80;;;;;;5002009;28;20509;-77
2023/02/28 01:08:33;;;;;;;3.95;2.22;;;6.10;53.80;;;;;;5002572;28;20046;-77
2023/02/28 01:11:11;;;;;;;4.43;2.03;;;6.10;53.80;;;;;;5014880;28;20124;-76
2023/02/28 01:13:40;;;;;;;6.80;2.40;;;6.10;53.90;;;;;;5007325;28;20038;-75
2023/02/28 01:16:07;;;;;;;7.70;2.13;;;6.10;53.90;;;;;;5006728;28;20033;-75
2023/02/28 01:18:35;;;;;;;4.93;2.80;;;6.10;53.90;;;;;;5002252;28;20113;-75
2023/02/28 01:21:13;;;;;;;6.57;2.17;;;6.00;53.80;;;;;;5013357;28;20046;-75
2023/02/28 01:23:40;;;;;;;2.80;1.80;;;6.10;54.10;;;;;;5000780;28;20038;-76
2023/02/28 01:26:17;;;;;;;2.80;1.95;;;6.00;53.90;;;;;;5002494;28;20358;-75
2023/02/28 01:28:43;;;;;;;4.97;2.00;;;6.00;53.90;;;;;;5000262;28;20108;-75
2023/02/28 01:31:10;;;;;;;2.17;1.70;;;6.10;54.10;;;;;;5010564;28;20503;-75
2023/02/28 01:33:38;;;;;;;3.05;1.92;;;6.10;54.10;;;;;;4985006;28;20040;-75
2023/02/28 01:36:14;;;;;;;2.17;1.55;;;6.00;53.90;;;;;;5003497;28;20022;-75
2023/02/28 01:38:40;;;;;;;3.63;1.50;;;6.10;54.10;;;;;;5001343;28;20034;-76
2023/02/28 01:41:07;;;;;;;2.80;1.65;;;6.10;54.10;;;;;;5007408;28;20053;-75
2023/02/28 01:44:12;;;;;;;3.33;1.77;;;6.00;53.90;;;;;;5011338;28;20129;-76
2023/02/28 01:46:39;;;;;;;5.82;1.67;;;6.10;54.20;;;;;;5014369;28;20040;-75
2023/02/28 01:49:15;;;;;;;3.08;1.58;;;6.10;54.10;;;;;;5018100;28;20761;-75
2023/02/28 01:51:50;;;;;;;4.15;1.98;;;6.10;54.20;;;;;;5007674;28;20021;-75
2023/02/28 01:54:20;;;;;;;3.35;1.70;;;6.10;54.10;;;;;;5001057;28;20129;-75
2023/02/28 01:56:51;;;;;;;2.47;1.30;;;6.10;54.10;;;;;;5002821;28;20034;-75
2023/02/28 01:59:40;;;;;;;4.20;2.03;;;6.10;54.20;;;;;;4999759;28;20048;-75
2023/02/28 02:02:06;;;;;;;2.50;1.50;;;6.10;54.20;;;;;;5002988;28;20463;-75
2023/02/28 02:04:41;;;;;;;5.30;1.58;;;6.10;54.10;;;;;;5021954;28;20041;-74
2023/02/28 02:07:08;;;;;;;3.25;1.38;;;6.00;54.00;;;;;;5020534;28;20034;-75
2023/02/28 02:09:34;;;;;;;3.83;1.65;;;6.10;54.20;;;;;;5020462;28;20063;-75
2023/02/28 02:12:10;;;;;;;4.50;1.52;;;6.00;54.00;;;;;;5001057;28;20030;-74
2023/02/28 02:14:51;;;;;;;7.22;3.08;;;6.10;54.30;;;;;;4978997;28;20037;-74
2023/02/28 02:17:32;;;;;;;4.22;1.42;;;6.00;54.20;;;;;;5012899;28;20038;-74
2023/02/28 02:20:25;;;;;;;2.97;1.73;;;6.10;54.40;;;;;;4991245;28;20048;-74
2023/02/28 02:23:14;;;;;;;3.53;1.48;;;6.00;54.20;;;;;;5006980;28;20046;-74
2023/02/28 02:25:56;;;;;;;1.88;1.40;;;6.00;54.20;;;;;;5001949;28;20036;-73
2023/02/28 02:28:56;;;;;;;2.80;1.27;;;6.00;54.20;;;;;;4999287;28;20654;-74
2023/02/28 02:31:42;;;;;;;2.25;1.50;;;6.00;54.20;;;;;;5020436;28;20033;-74
2023/02/28 02:34:34;;;;;;;2.95;1.63;;;6.00;54.20;;;;;;5016374;28;20114;-74
2023/02/28 02:37:11;;;;;;;4.10;1.73;;;6.00;54.20;;;;;;5007709;28;20034;-74
2023/02/28 02:39:54;;;;;;;2.65;1.80;;;6.00;54.20;;;;;;5013941;28;20483;-73
2023/02/28 02:42:58;;;;;;;3.58;1.77;;;6.00;54.20;;;;;;5022791;28;20029;-73
2023/02/28 02:45:27;;;;;;;4.55;1.50;;;6.00;54.20;;;;;;5021088;28;20048;-74
2023/02/28 02:47:58;;;;;;;2.40;1.65;;;6.00;54.10;;;;;;5027341;28;20046;-74
2023/02/28 02:50:31;;;;;;;6.53;2.25;;;6.00;54.20;;;;;;5011416;28;20037;-74
2023/02/28 02:52:59;;;;;;;;;;;6.00;54.20;;;;;;5022673;28;20895;-74
2023/02/28 02:55:29;;;;;;;2.42;1.70;;;6.10;54.30;;;;;;5027220;28;19924;-74
2023/02/28 02:58:02;;;;;;;3.40;2.00;;;6.00;54.00;;;;;;5026984;28;20037;-74
2023/02/28 03:00:37;;;;;;;5.03;1.65;;;6.00;54.00;;;;;;5025496;28;20037;-74
2023/02/28 03:03:04;;;;;;;3.00;1.90;;;6.00;54.10;;;;;;5028110;28;20037;-74
2023/02/28 03:05:36;;;;;;;3.67;2.03;;;6.00;54.20;;;;;;5023314;28;20234;-74
2023/02/28 03:08:05;;;;;;;3.03;1.60;;;6.00;54.20;;;;;;5022715;28;20045;-74
2023/02/28 03:10:40;;;;;;;5.50;2.40;;;6.00;54.20;;;;;;5026204;28;20093;-74
2023/02/28 03:13:20;;;;;;;3.67;1.92;;;6.00;54.20;;;;;;5011677;28;20627;-74
2023/02/28 03:16:24;;;;;;;3.25;2.10;;;6.00;54.20;;;;;;5019694;28;20060;-74
2023/02/28 03:18:50;;;;;;;4.40;1.80;;;6.00;54.20;;;;;;5028507;28;20033;-74
2023/02/28 03:21:27;;;;;;;3.15;1.85;;;6.00;54.20;;;;;;5027288;28;20091;-74
2023/02/28 03:24:13;;;;;;;3.38;2.00;;;6.00;54.20;;;;;;5026471;28;20057;-73
2023/02/28 03:26:44;;;;;;;4.32;1.80;;;6.00;54.20;;;;;;5007146;28;20121;-73
2023/02/28 03:29:17;;;;;;;2.60;2.10;;;6.00;54.80;;;;;;5014401;28;20133;-74
2023/02/28 03:31:53;;;;;;;3.55;1.77;;;6.00;54.20;;;;;;5026880;28;20826;-74
2023/02/28 03:34:31;;;;;;;2.40;1.90;;;6.00;54.30;;;;;;5019655;28;20116;-73
2023/02/28 03:37:08;;;;;;;3.22;2.10;;;6.00;54.30;;;;;;5021323;28;20116;-75
2023/02/28 03:39:42;;;;;;;2.08;1.88;;;6.00;54.90;;;;;;5027876;28;20069;-75
2023/02/28 03:42:19;;;;;;;5.07;2.45;;;6.00;54.20;;;;;;5027571;28;20469;-75
2023/02/28 03:44:48;;;;;;;4.20;1.88;;;6.00;54.30;;;;;;5025742;28;20064;-75
2023/02/28 03:47:28;;;;;;;2.60;1.90;;;6.10;54.40;;;;;;5009721;28;20064;-75
2023/02/28 03:50:06;;;;;;;4.15;2.20;;;6.10;54.50;;;;;;5021175;28;20099;-75
2023/02/28 03:52:38;;;;;;;3.50;2.10;;;6.10;54.40;;;;;;5027288;28;20512;-75
2023/02/28 03:55:10;;;;;;;2.25;2.05;;;6.10;54.40;;;;;;5025819;28;20041;-74
2023/02/28 03:57:53;;;;;;;5.43;2.20;;;6.20;54.60;;;;;;5023293;28;20042;-74
2023/02/28 04:00:28;;;;;;;3.45;2.28;;;6.10;54.40;;;;;;5013360;28;20424;-73
2023/02/28 04:02:54;;;;;;;3.00;1.95;;;6.10;54.40;;;;;;5017691;28;20029;-74
2023/02/28 04:05:21;;;;;;;5.20;2.58;;;6.20;54.60;;;;;;5026723;28;20417;-74
2023/02/28 04:07:48;;;;;;;3.80;2.50;;;6.20;54.50;;;;;;5021554;28;20103;-74
2023/02/28 04:10:15;;;;;;;2.97;2.55;;;6.20;54.50;;;;;;5026784;28;20045;-74
2023/02/28 04:12:41;;;;;;;4.88;3.53;;;6.20;54.50;;;;;;5024286;28;20026;-74
2023/02/28 04:15:07;;;;;;;2.75;2.55;;;6.30;54.70;;;;;;5025024;28;20139;-74
2023/02/28 04:17:33;;;;;;;5.28;3.33;;;6.20;54.50;;;;;;5026162;28;20033;-74
2023/02/28 04:19:59;;;;;;;6.65;3.00;;;6.30;54.70;;;;;;5027242;28;20056;-73
2023/02/28 04:22:26;;;;;;;3.30;2.60;;;6.30;54.80;;;;;;5017350;28;20116;-74
2023/02/28 04:24:54;;;;;;;4.15;2.70;;;6.30;54.80;;;;;;5026953;28;20037;-74
2023/02/28 04:27:21;;;;;;;4.72;3.22;;;6.30;54.80;;;;;;5026406;28;20784;-74
2023/02/28 04:29:47;;;;;;;3.47;3.03;;;6.30;55.30;;;;;;5018285;28;20112;-74
2023/02/28 04:32:13;;;;;;;3.85;3.53;;;6.30;54.80;;;;;;5026767;28;20493;-74
2023/02/28 04:34:39;;;;;;;4.25;3.65;;;6.30;54.80;;;;;;5026118;28;20034;-75
2023/02/28 04:37:05;;;;;;;4.65;3.35;;;6.30;54.80;;;;;;5023681;28;20026;-75
2023/02/28 04:39:35;;;;;;;4.50;4.10;;;6.40;55.00;;;;;;5025999;28;20579;-74
2023/02/28 04:42:01;;;;;;;4.47;4.00;;;6.40;55.00;;;;;;5026832;28;20038;-74
2023/02/28 04:44:27;;;;;;;4.60;4.20;;;6.40;55.00;;;;;;5016690;28;20107;-74
2023/02/28 04:46:53;;;;;;;8.35;5.13;;;6.40;55.00;;;;;;5023073;28;20047;-74
2023/02/28 04:49:19;;;;;;;4.88;4.40;;;6.40;55.00;;;;;;5025963;28;20474;-74
2023/02/28 04:51:45;;;;;;;5.80;5.25;;;6.40;55.00;;;;;;5018674;28;20153;-74
2023/02/28 04:54:11;;;;;;;4.88;4.10;;;6.40;55.00;;;;;;5024907;28;20566;-74
2023/02/28 04:56:37;;;;;;;5.35;4.53;;;6.40;55.00;;;;;;5026772;28;20025;-74
2023/02/28 04:59:03;;;;;;;5.15;4.68;;;6.50;55.20;;;;;;5003822;28;20117;-74
2023/02/28 05:01:32;;;;;;;5.38;4.75;;;6.50;55.30;;;;;;5021757;28;20037;-74
2023/02/28 05:04:01;;;;;;;6.93;4.60;;;6.50;55.30;;;;;;5025325;28;20295;-74
2023/02/28 05:06:29;;;;;;;6.18;5.32;;;6.50;55.30;;;;;;5019151;28;20101;-74
2023/02/28 05:08:56;;;;;;;7.30;5.32;;;6.50;55.30;;;;;;5026722;28;20056;-74
2023/02/28 05:11:35;;;;;;;6.10;4.32;;;6.50;55.30;;;;;;5015016;28;20029;-73
2023/02/28 05:14:15;;;;;;;5.25;4.45;;;6.50;55.30;;;;;;5020774;28;20036;-73
2023/02/28 05:16:40;;;;;;;4.63;4.18;;;6.50;55.30;;;;;;5026565;28;20037;-74
2023/02/28 05:19:06;;;;;;;5.15;4.43;;;6.50;55.30;;;;;;5027206;28;20029;-74
2023/02/28 05:21:34;;;;;;;5.30;4.47;;;6.60;55.60;;;;;;5025486;28;20041;-74
2023/02/28 05:24:04;;;;;;;5.32;4.85;;;6.50;55.40;;;;;;5025335;28;20037;-75
2023/02/28 05:26:30;;;;;;;4.35;3.95;;;6.60;55.60;;;;;;5020712;28;20053;-75
2023/02/28 05:28:56;;;;;;;6.18;4.30;;;6.60;55.60;;;;;;5020652;28;20526;-76
2023/02/28 05:31:23;;;;;;;6.85;5.03;;;6.60;55.60;;;;;;5022177;28;20113;-76
2023/02/28 05:33:49;;;;;;;5.47;4.45;;;6.60;55.60;;;;;;5014491;28;20496;-76
2023/02/28 05:36:14;;;;;;;5.97;4.75;;;6.60;55.60;;;;;;5014819;28;20037;-75
2023/02/28 05:38:40;;;;;;;6.25;4.85;;;6.60;55.60;;;;;;5025846;28;20183;-77
2023/02/28 05:41:09;;;;;;;4.60;4.20;;;6.60;55.60;;;;;;5019086;28;20040;-77
2023/02/28 05:43:36;;;;;;;5.65;4.70;;;6.60;55.60;;;;;;5024905;28;20033;-77
2023/02/28 05:46:05;;;;;;;4.78;4.10;;;6.70;55.80;;;;;;5025742;28;20048;-77
2023/02/28 05:48:32;;;;;;;6.63;4.68;;;6.60;55.60;;;;;;5019872;28;20038;-74
2023/02/28 05:50:58;;;;;;;5.85;5.20;;;6.70;56.50;;;;;;5019394;28;20057;-77
2023/02/28 05:53:24;;;;;;;5.50;4.45;;;6.70;55.80;;;;;;5019492;28;20557;-75
2023/02/28 05:55:50;;;;;;;5.25;4.75;;;6.70;55.80;;;;;;5018177;28;20129;-74
2023/02/28 05:58:15;;;;;;;5.10;4.38;;;6.70;55.80;;;;;;5017537;28;20175;-75
2023/02/28 06:00:41;;;;;;;4.68;4.07;;;6.60;55.70;;;;;;5010521;28;20493;-75
2023/02/28 06:03:07;;;;;;;6.43;4.80;;;6.60;55.70;;;;;;5020078;28;20053;-75
2023/02/28 06:05:33;;;;;;;5.82;4.78;;;6.70;55.90;;;;;;5021879;28;20028;-75
2023/02/28 06:07:59;;;;;;;4.78;4.38;;;6.60;55.70;;;;;;5019488;28;20037;-75
2023/02/28 06:10:25;;;;;;;5.32;4.82;;;6.60;55.80;;;;;;5021275;28;20311;-75
2023/02/28 06:12:51;;;;;;;5.45;4.93;;;6.60;55.80;;;;;;5034317;28;20041;-77
2023/02/28 06:15:17;;;;;;;6.90;4.93;;;6.60;55.90;;;;;;5017462;28;20034;-75
2023/02/28 06:17:44;;;;;;;6.05;5.35;;;6.60;55.90;;;;;;5019521;28;20196;-78
2023/02/28 06:20:12;;;;;;;6.32;5.53;;;6.50;55.80;;;;;;5020245;28;20044;-76
2023/02/28 06:22:39;;;;;;;5.78;5.15;;;6.60;56.00;;;;;;5013790;28;20043;-75
2023/02/28 06:25:06;;;;;;;5.97;5.20;;;6.50;55.80;;;;;;5013194;28;20519;-76
2023/02/28 06:27:33;;;;;;;6.43;5.80;;;6.50;55.80;;;;;;5022609;28;20085;-75
2023/02/28 06:29:59;;;;;;;7.20;6.60;;;6.50;55.90;;;;;;5010655;28;20057;-78
2023/02/28 06:32:25;;;;;;;6.15;5.55;;;6.50;56.30;;;;;;5021871;28;20037;-77
2023/02/28 06:34:51;;;;;;;6.80;6.10;;;6.50;56.00;;;;;;5003030;28;20588;-78
2023/02/28 06:37:17;;;;;;;6.68;5.97;;;6.40;55.80;;;;;;5019768;28;20030;-77
2023/02/28 06:39:43;;;;;;;7.15;6.55;;;6.40;55.90;;;;;;5023162;28;20041;-75
2023/02/28 06:42:09;;;;;;;7.68;6.68;;;6.40;55.90;;;;;;5021808;28;20026;-74
2023/02/28 06:44:35;;;;;;;7.95;7.18;;;6.30;55.80;;;;;;5018801;28;20045;-76
2023/02/28 06:47:03;;;;;;;8.20;7.40;;;6.30;55.90;;;;;;5017079;28;20029;-75
2023/02/28 06:49:33;;;;;;;7.88;7.18;;;6.30;55.90;;;;;;5014759;28;20037;-76
2023/02/28 06:51:58;;;;;;;8.00;7.25;;;6.30;55.90;;;;;;5011046;28;20018;-77
2023/02/28 06:54:24;;;;;;;9.45;8.48;;;6.20;55.80;;;;;;5022073;28;20048;-76
2023/02/28 06:56:50;;;;;;;11.10;8.77;;;6.20;55.90;;;;;;5020627;28;20041;-75
2023/02/28 06:59:17;;;;;;;9.43;8.52;;;6.20;55.90;;;;;;5019889;28;20601;-74
2023/02/28 07:01:43;;;;;;;11.15;9.40;;;6.20;56.00;;;;;;5021888;28;20064;-77
2023/02/28 07:04:09;;;;;;;9.98;8.20;;;6.20;56.00;;;;;;5021954;28;20029;-76
2023/02/28 07:06:35;;;;;;;14.90;8.93;;;6.10;56.00;;;;;;5015891;28;20029;-75
2023/02/28 07:09:01;;;;;;;11.50;9.00;;;6.20;56.60;;;;;;5019808;28;20524;-75
2023/02/28 07:11:27;;;;;;;17.13;9.48;;;6.30;57.50;;;;;;5018461;28;20481;-77
2023/02/28 07:13:54;;;;;;;11.40;9.45;;;6.50;58.30;;;;;;5014232;28;20056;-75
2023/02/28 07:16:20;;;;;;;13.43;9.95;;;6.70;58.90;;;;;;5015512;28;20112;-75
2023/02/28 07:18:46;;;;;;;14.15;8.40;;;6.90;59.40;;;;;;5018917;28;20431;-75
2023/02/28 07:21:13;;;;;;;13.07;8.85;;;7.10;59.80;;;;;;5015831;28;20452;-76
2023/02/28 07:23:39;;;;;;;12.73;8.68;;;7.30;60.10;;;;;;5011862;28;20077;-74
2023/02/28 07:26:11;;;;;;;13.63;7.68;;;7.60;60.60;;;;;;5019142;28;20038;-75
2023/02/28 07:28:38;;;;;;;10.02;7.95;;;7.80;60.90;;;;;;5012752;28;20547;-75
2023/02/28 07:31:05;;;;;;;9.73;7.15;;;8.00;61.10;;;;;;5020817;28;20030;-76
2023/02/28 07:33:31;;;;;;;9.45;6.93;;;8.20;61.30;;;;;;5016352;28;20049;-76
2023/02/28 07:36:05;;;;;;;11.05;7.00;;;8.40;61.50;;;;;;5014346;28;20037;-76
2023/02/28 07:38:35;;;;;;;9.00;7.55;;;8.60;61.80;;;;;;5021276;28;20204;-78
2023/02/28 07:41:04;;;;;;;7.68;6.95;;;8.80;61.80;;;;;;5020519;28;20582;-74
2023/02/28 07:43:30;;;;;;;9.02;8.13;;;8.90;61.70;;;;;;5020269;28;20343;-75
2023/02/28 07:46:05;;;;;;;10.73;7.15;;;9.10;61.80;;;;;;5018593;28;20228;-73
2023/02/28 07:48:31;;;;;;;10.07;7.25;;;9.20;61.70;;;;;;5017072;28;20049;-76
2023/02/28 07:50:59;;;;;;;7.82;6.90;;;9.20;61.40;;;;;;5006490;28;20032;-76
2023/02/28 07:53:25;;;;;;;9.50;6.80;;;9.20;61.30;;;;;;5015720;28;20097;-78
2023/02/28 07:55:54;;;;;;;8.18;7.43;;;9.20;61.20;;;;;;5021850;28;20112;-76
2023/02/28 07:58:20;;;;;;;9.73;6.78;;;9.10;61.10;;;;;;5016251;28;20037;-75
2023/02/28 08:00:45;;;;;;;12.98;7.95;;;9.00;61.00;;;;;;5020635;28;20041;-74
2023/02/28 08:03:12;;;;;;;8.57;7.78;;;9.00;61.00;;;;;;5015887;28;20040;-75
2023/02/28 08:05:41;;;;;;;11.27;7.80;;;8.90;60.90;;;;;;5018367;28;20029;-75
2023/02/28 08:08:08;;;;;;;7.55;6.80;;;8.90;61.10;;;;;;5014675;28;20052;-74
2023/02/28 08:10:33;;;;;;;8.40;7.50;;;8.80;60.90;;;;;;5021397;28;20069;-74
2023/02/28 08:13:00;;;;;;;7.60;6.82;;;8.70;60.80;;;;;;5011537;28;20108;-74
2023/02/28 08:15:26;;;;;;;7.97;7.18;;;8.70;60.80;;;;;;5007236;28;20281;-75
2023/02/28 08:17:52;;;;;;;8.13;7.32;;;8.60;60.60;;;;;;5010788;28;20034;-76
2023/02/28 08:20:19;;;;;;;9.10;7.68;;;8.60;60.60;;;;;;5012517;28;20485;-75
2023/02/28 08:22:44;;;;;;;8.77;7.90;;;8.60;60.60;;;;;;5009811;28;20037;-75
2023/02/28 08:25:10;;;;;;;9.32;8.43;;;8.60;60.60;;;;;;5013859;28;20115;-73
2023/02/28 08:27:36;;;;;;;9.10;7.20;;;8.60;60.50;;;;;;5010658;28;20120;-73
2023/02/28 08:30:03;;;;;;;8.30;7.50;;;8.60;60.40;;;;;;5011863;28;20082;-74
2023/02/28 08:32:29;;;;;;;8.45;7.65;;;8.60;60.30;;;;;;5010722;28;20468;-75
2023/02/28 08:34:55;;;;;;;8.35;7.43;;;8.70;60.40;;;;;;5020788;28;20068;-74
2023/02/28 08:37:20;;;;;;;8.02;7.22;;;8.70;60.30;;;;;;5011014;28;20122;-78
2023/02/28 08:39:46;;;;;;;6.93;6.22;;;8.70;60.20;;;;;;5015700;28;20029;-78
2023/02/28 08:42:12;;;;;;;6.90;6.30;;;8.80;60.30;;;;;;5012055;28;21103;-74
2023/02/28 08:44:38;;;;;;;7.55;6.85;;;8.80;60.70;;;;;;5013499;28;20438;-75
2023/02/28 08:47:04;;;;;;;7.40;6.63;;;8.90;60.70;;;;;;5011569;28;20042;-79
2023/02/28 08:49:30;;;;;;;7.15;6.45;;;9.00;60.20;;;;;;5014865;28;20035;-78
2023/02/28 08:51:57;;;;;;;6.38;5.78;;;9.10;60.20;;;;;;5016658;28;20033;-75
2023/02/28 08:54:23;;;;;;;8.30;6.47;;;9.20;60.10;;;;;;5015383;28;20040;-75
2023/02/28 08:56:49;;;;;;;6.97;6.18;;;9.30;60.10;;;;;;5005812;28;20033;-75
2023/02/28 08:59:15;;;;;;;7.00;6.40;;;9.40;60.10;;;;;;5001759;28;20549;-76
2023/02/28 09:01:43;;;;;;;6.85;6.15;;;9.40;59.90;;;;;;5014277;28;20919;-75
2023/02/28 09:04:10;;;;;;;7.35;6.65;;;9.50;59.80;;;;;;5008977;28;20029;-75
2023/02/28 09:06:36;;;;;;;8.27;5.95;;;9.60;59.80;;;;;;5004323;28;20042;-75
2023/02/28 09:09:05;;;;;;;8.75;7.22;;;9.70;59.80;;;;;;5012805;28;20049;-75
2023/02/28 09:11:31;;;;;;;8.35;6.65;;;9.80;59.80;;;;;;5007189;28;20037;-75
2023/02/28 09:14:00;;;;;;;7.40;6.70;;;9.80;59.60;;;;;;5017031;28;20033;-75
2023/02/28 09:16:26;;;;;;;7.40;6.70;;;9.90;59.70;;;;;;5018231;28;20030;-75
2023/02/28 09:18:52;;;;;;;8.55;7.70;;;9.90;59.50;;;;;;5016888;28;20041;-76
2023/02/28 09:21:19;;;;;;;9.52;7.70;;;10.00;59.60;;;;;;5019399;28;20120;-76
2023/02/28 09:23:47;;;;;;;8.45;7.65;;;10.00;59.40;;;;;;5017808;28;20064;-76
2023/02/28 09:26:18;;;;;;;8.23;7.35;;;10.10;59.50;;;;;;5006857;28;20504;-75
2023/02/28 09:28:44;;;;;;;8.48;7.57;;;10.10;59.40;;;;;;5018724;28;20041;-75
2023/02/28 09:31:16;;;;;;;10.90;8.70;;;10.10;59.30;;;;;;5017651;28;20033;-79
2023/02/28 09:33:42;;;;;;;10.30;8.53;;;10.10;59.30;;;;;;5014792;28;20044;-75
2023/02/28 09:36:08;;;;;;;8.88;8.07;;;10.10;59.20;;;;;;5017686;28;20031;-78
2023/02/28 09:38:35;;;;;;;8.63;7.72;;;10.20;59.30;;;;;;5016201;28;20041;-78
2023/02/28 09:41:04;;;;;;;8.75;7.95;;;10.20;59.20;;;;;;5017628;28;20038;-80
2023/02/28 09:43:38;;;;;;;9.45;8.55;;;10.30;59.20;;;;;;5008507;28;20033;-76
2023/02/28 09:46:23;;;;;;;9.13;8.20;;;10.40;59.20;;;;;;5022454;28;20045;-75
2023/02/28 09:48:50;;;;;;;8.38;7.60;;;10.40;59.10;;;;;;5019613;28;20076;-76
2023/02/28 09:51:59;;;;;;;10.45;8.52;;;10.50;59.00;;;;;;5019672;28;20402;-75
2023/02/28 09:54:30;;;;;;;10.10;8.68;;;10.50;58.80;;;;;;5020230;28;20045;-76
2023/02/28 09:57:06;;;;;;;9.68;8.68;;;10.60;58.90;;;;;;5013602;28;20045;-76
2023/02/28 09:59:35;;;;;;;10.27;8.93;;;10.80;59.10;;;;;;5009324;28;20464;-75
2023/02/28 10:02:28;;;;;;;9.20;8.20;;;10.80;58.80;;;;;;5008201;28;20101;-74
2023/02/28 10:05:05;;;;;;;10.57;9.57;;;10.90;58.80;;;;;;5020528;28;20086;-74
2023/02/28 10:08:05;;;;;;;10.07;8.43;;;11.00;58.70;;;;;;5017666;28;20044;-77
2023/02/28 10:10:40;;;;;;;8.82;7.93;;;11.20;58.70;;;;;;5014005;28;20048;-74
2023/02/28 10:13:32;;;;;;;10.18;8.45;;;11.30;58.70;;;;;;5016522;28;20045;-75
2023/02/28 10:16:05;;;;;;;9.73;8.30;;;11.40;58.50;;;;;;5017433;28;20574;-74
2023/02/28 10:18:54;;;;;;;12.48;9.10;;;11.60;58.60;;;;;;5018778;28;20166;-76
2023/02/28 10:21:27;;;;;;;9.57;8.65;;;11.70;58.50;;;;;;5019929;28;20038;-76
2023/02/28 10:24:03;;;;;;;10.88;9.80;;;11.80;58.30;;;;;;5016229;28;20558;-76
2023/02/28 10:26:31;;;;;;;10.43;8.95;;;11.90;58.30;;;;;;5018460;28;20072;-74
2023/02/28 10:28:57;;;;;;;8.82;7.93;;;11.90;58.00;;;;;;5012533;28;20052;-75
2023/02/28 10:31:23;;;;;;;9.10;8.20;;;12.00;58.00;;;;;;5019190;28;20450;-75
2023/02/28 10:33:49;;;;;;;10.25;8.20;;;12.10;58.00;;;;;;5017204;28;20095;-74
2023/02/28 10:36:19;;;;;;;8.63;7.82;;;12.10;57.70;;;;;;5014967;28;20037;-76
2023/02/28 10:38:47;;;;;;;8.30;7.43;;;12.20;57.80;;;;;;5012339;28;20095;-75
2023/02/28 10:41:14;;;;;;;8.18;7.38;;;12.20;57.70;;;;;;5018394;28;20535;-74
2023/02/28 10:43:42;;;;;;;8.43;7.63;;;12.30;57.60;;;;;;5013151;28;20038;-75
2023/02/28 10:46:08;;;;;;;7.57;6.88;;;12.30;57.30;;;;;;5018832;28;20037;-75
2023/02/28 10:48:42;;;;;;;7.75;6.90;;;12.40;57.30;;;;;;5014407;28;20473;-75
2023/02/28 10:51:15;;;;;;;8.00;7.22;;;12.40;57.10;;;;;;5014168;28;20033;-75
2023/02/28 10:53:50;;;;;;;7.18;6.57;;;12.50;57.10;;;;;;5010555;28;20069;-75
2023/02/28 10:56:24;;;;;;;8.52;6.95;;;12.60;57.00;;;;;;5014075;28;20615;-76
2023/02/28 10:59:00;;;;;;;7.75;6.95;;;12.60;56.70;;;;;;5015559;28;20416;-75
2023/02/28 11:01:32;;;;;;;8.88;6.68;;;12.70;56.70;;;;;;5021997;28;20043;-76
2023/02/28 11:03:58;;;;;;;9.60;8.02;;;12.70;56.60;;;;;;5020581;28;20041;-75
2023/02/28 11:06:31;;;;;;;8.38;7.57;;;12.70;56.60;;;;;;5021449;28;20044;-74
2023/02/28 11:09:16;;;;;;;7.63;6.85;;;12.80;56.50;;;;;;5012485;28;20044;-74
2023/02/28 11:11:46;;;;;;;7.97;7.00;;;12.80;56.20;;;;;;5013113;28;20451;-76
2023/02/28 11:14:19;;;;;;;8.43;7.53;;;12.90;56.30;;;;;;5015666;28;20076;-74
2023/02/28 11:16:45;;;;;;;;;;;13.00;56.20;;;;;;5016150;28;20026;-75
2023/02/28 11:19:20;;;;;;;8.30;7.50;;;13.00;56.10;;;;;;5013857;28;20010;-74
2023/02/28 11:21:56;;;;;;;7.88;7.07;;;13.00;56.10;;;;;;5021907;28;20812;-74
2023/02/28 11:24:27;;;;;;;7.88;7.07;;;13.00;56.10;;;;;;5020208;28;20211;-74
2023/02/28 11:26:53;;;;;;;8.05;7.22;;;13.00;56.00;;;;;;5023485;28;20057;-74
2023/02/28 11:29:21;;;;;;;8.10;7.30;;;13.10;55.90;;;;;;5015448;28;20052;-74
2023/02/28 11:32:11;;;;;;;8.52;7.63;;;13.10;55.70;;;;;;5021734;28;20029;-74
2023/02/28 11:34:38;;;;;;;8.15;7.32;;;13.10;55.40;;;;;;5020058;28;20500;-74
2023/02/28 11:37:09;;;;;;;7.82;7.13;;;13.10;56.10;;;;;;5023593;28;20026;-74
2023/02/28 11:39:36;;;;;;;7.75;6.93;;;13.20;55.60;;;;;;5015190;28;20094;-76
2023/02/28 11:42:11;;;;;;;8.57;7.07;;;13.20;55.40;;;;;;5019622;28;20030;-75
2023/02/28 11:45:02;;;;;;;7.15;6.45;;;13.20;55.10;;;;;;5020549;28;20057;-74
2023/02/28 11:47:33;;;;;;;7.60;6.88;;;13.30;55.10;;;;;;5012307;28;20040;-74
2023/02/28 11:50:21;;;;;;;8.27;7.47;;;13.40;55.40;;;;;;5018744;28;20597;-77
2023/02/28 11:53:17;;;;;;;7.93;7.15;;;13.50;55.10;;;;;;5014664;28;20514;-78
2023/02/28 11:56:01;;;;;;;8.18;6.80;;;13.60;55.10;;;;;;5009276;28;20656;-77
2023/02/28 11:59:01;;;;;;;8.73;6.97;;;13.60;55.00;;;;;;5009178;28;20028;-76
2023/02/28 12:01:54;;;;;;;8.73;7.20;;;13.60;54.90;;;;;;5024044;28;20048;-75
2023/02/28 12:04:26;;;;;;;8.70;7.75;;;13.70;54.90;;;;;;5003158;28;20069;-75
2023/02/28 12:07:04;;;;;;;8.05;6.72;;;13.80;55.00;;;;;;5015239;28;20087;-74
2023/02/28 12:09:37;;;;;;;7.00;6.32;;;13.80;54.70;;;;;;5015891;28;20034;-77
2023/02/28 12:12:26;;;;;;;7.40;6.70;;;13.90;54.70;;;;;;5017697;28;20113;-75
2023/02/28 12:15:17;;;;;;;8.35;6.85;;;14.00;54.60;;;;;;5004933;28;20092;-75
2023/02/28 12:17:52;;;;;;;6.15;5.55;;;14.20;54.50;;;;;;5008762;28;20541;-75
2023/02/28 12:20:24;;;;;;;7.47;6.30;;;14.30;54.50;;;;;;5012100;28;20132;-74
2023/02/28 12:22:53;;;;;;;7.72;6.97;;;14.30;54.30;;;;;;5017972;28;20592;-75
2023/02/28 12:25:44;;;;;;;7.05;6.18;;;14.40;54.40;;;;;;5015076;28;20045;-76
2023/02/28 12:28:14;;;;;;;7.00;6.30;;;14.40;54.10;;;;;;4994082;28;20115;-75
2023/02/28 12:30:49;;;;;;;7.60;5.82;;;14.60;54.20;;;;;;5017353;28;20039;-76
2023/02/28 12:33:20;;;;;;;7.05;6.00;;;14.60;54.00;;;;;;5011676;28;20040;-75
2023/02/28 12:36:00;;;;;;;6.75;5.95;;;14.60;53.90;;;;;;5014349;28;20033;-75
2023/02/28 12:38:36;;;;;;;6.93;6.32;;;14.60;53.60;;;;;;5012328;28;20045;-75
2023/02/28 12:41:13;;;;;;;6.22;5.63;;;14.50;53.60;;;;;;5013488;28;20309;-75
2023/02/28 12:43:48;;;;;;;6.68;6.07;;;14.50;53.70;;;;;;5008352;28;20038;-74
2023/02/28 12:46:27;;;;;;;6.20;5.68;;;14.50;53.70;;;;;;5009545;28;20037;-75
2023/02/28 12:48:57;;;;;;;5.47;4.95;;;14.50;53.70;;;;;;5009171;28;20037;-75
2023/02/28 12:51:25;;;;;;;5.07;4.57;;;14.50;53.60;;;;;;5011483;28;20037;-75
2023/02/28 12:54:21;;;;;;;5.45;4.60;;;14.50;53.50;;;;;;5006900;28;20038;-75
2023/02/28 12:57:08;;;;;;;4.47;4.03;;;14.60;53.40;;;;;;5003535;28;20013;-76
2023/02/28 12:59:51;;;;;;;4.88;4.38;;;14.70;53.40;;;;;;5006121;28;20080;-76
2023/02/28 13:02:44;;;;;;;4.67;4.23;;;14.80;53.30;;;;;;5019947;28;20029;-75
2023/02/28 13:05:46;;;;;;;5.05;4.32;;;14.90;53.80;;;;;;5001841;28;20034;-76
2023/02/28 13:08:47;;;;;;;5.50;4.70;;;15.00;53.10;;;;;;4999340;28;20045;-76
2023/02/28 13:11:44;;;;;;;4.35;3.92;;;15.10;53.20;;;;;;5013691;28;20026;-76
2023/02/28 13:14:30;;;;;;;5.35;4.03;;;15.20;53.20;;;;;;5007387;28;20026;-76